Flight Track Log - Related Links

Times and Time Zones

All times are in EDT time to prevent confusion due to time zone crossing. See the ASA123 flight status page for this flight to view local times or setup timezone preferences in your user account.

Time Position Orientation Groundspeed Altitude Reporting Facility
EDT Latitude Longitude Course Direction KTS MPH feet Rate Location/Type
Sat 04:52:46 PM 47.4258 -122.3089 181° South 173 199 1,300  Level Seattle Center
Sat 04:53:22 PM 47.3950 -122.3097 181° South 177 204 2,200 1,856 Climbing Seattle Center
Sat 04:54:23 PM 47.3333 -122.3206 187° South 237 273 4,300 2,014 Climbing Seattle Center
Sat 04:55:45 PM 47.3092 -122.4458 254° West 270 311 7,000 2,182 Climbing Seattle Center
Sat 04:56:46 PM 47.3597 -122.5475 306° West 289 333 9,500 2,066 Climbing Seattle Center
Sat 04:57:47 PM 47.4244 -122.6322 318° Northwest 310 357 11,200 1,672 Climbing Seattle Center
Sat 04:58:48 PM 47.4989 -122.7303 318° Northwest 357 411 12,900 1,967 Climbing Seattle Center
Sat 04:59:49 PM 47.5844 -122.8122 327° Northwest 381 438 15,200 2,311 Climbing Seattle Center
Sat 05:00:50 PM 47.6778 -122.8939 330° Northwest 389 448 17,600 2,115 Climbing Seattle Center
Sat 05:01:51 PM 47.7750 -122.9797 329° Northwest 406 467 19,500 1,918 Climbing Seattle Center
Sat 05:02:52 PM 47.8739 -123.0661 330° Northwest 414 476 21,500 1,918 Climbing Seattle Center
Sat 05:03:53 PM 47.9750 -123.1556 329° Northwest 426 490 23,400 1,721 Climbing Seattle Center
Sat 05:04:54 PM 48.0761 -123.2450 329° Northwest 434 499 25,000 1,623 Climbing Seattle Center
Sat 05:05:55 PM 48.2042 -123.3619 329° Northwest 441 507 26,700 1,463 Climbing Seattle Center
Sat 05:06:57 PM 48.3097 -123.4556 329° Northwest 446 513 28,000 1,268 Climbing Seattle Center
Sat 05:08:17 PM 48.4333 -123.6000 322° Northwest 460 529 29,700 1,371 Climbing Vancouver Center
Sat 05:09:17 PM 48.5500 -123.7000 330° Northwest 460 529 31,200 1,600 Climbing Vancouver Center
Sat 05:10:17 PM 48.6500 -123.8000 327° Northwest 460 529 32,900 1,400 Climbing Vancouver Center
Sat 05:11:17 PM 48.7667 -123.8833 335° Northwest 450 518 34,000 1,000 Climbing Vancouver Center
Sat 05:12:17 PM 48.8667 -123.9833 327° Northwest 450 518 34,900 900 Climbing Vancouver Center
Sat 05:13:17 PM 48.9667 -124.0833 327° Northwest 450 518 35,800 550 Climbing Vancouver Center
Sat 05:14:17 PM 49.0833 -124.1833 331° Northwest 450 518 36,000 100 Climbing Vancouver Center
Sat 05:15:17 PM 49.1833 -124.2833 327° Northwest 450 518 36,000  Level Vancouver Center
Sat 05:16:17 PM 49.2833 -124.3833 327° Northwest 450 518 36,000  Level Vancouver Center
Sat 05:17:17 PM 49.4000 -124.5000 327° Northwest 450 518 36,000  Level Vancouver Center
Sat 05:18:17 PM 49.5000 -124.6000 327° Northwest 450 518 36,000  Level Vancouver Center
Sat 05:19:17 PM 49.6000 -124.6667 337° Northwest 450 518 36,000  Level Vancouver Center
Sat 05:20:17 PM 49.7167 -124.7833 327° Northwest 450 518 36,000  Level Vancouver Center
Sat 05:21:17 PM 49.8167 -124.8833 327° Northwest 450 518 36,000  Level Vancouver Center
Sat 05:22:17 PM 49.9333 -125.0000 327° Northwest 450 518 36,000  Level Vancouver Center
Sat 05:23:17 PM 50.0333 -125.1000 327° Northwest 450 518 36,000  Level Vancouver Center
Sat 05:24:17 PM 50.1500 -125.2000 331° Northwest 460 529 36,000  Level Vancouver Center
Sat 05:25:17 PM 50.2500 -125.3167 323° Northwest 460 529 36,000  Level Vancouver Center
Sat 05:26:17 PM 50.3667 -125.4167 331° Northwest 460 529 36,000  Level Vancouver Center
Sat 05:27:17 PM 50.4667 -125.5333 323° Northwest 460 529 36,000  Level Vancouver Center
Sat 05:28:17 PM 50.5833 -125.6333 331° Northwest 460 529 36,000  Level Vancouver Center
Sat 05:29:17 PM 50.6833 -125.7500 324° Northwest 460 529 36,000  Level Vancouver Center
Sat 05:30:17 PM 50.8000 -125.8667 328° Northwest 460 529 36,000  Level Vancouver Center
Sat 05:31:17 PM 50.9000 -125.9667 328° Northwest 460 529 36,000  Level Vancouver Center
Sat 05:32:17 PM 51.0000 -126.0833 324° Northwest 460 529 36,000  Level Vancouver Center
Sat 05:33:17 PM 51.1167 -126.2000 328° Northwest 460 529 36,000  Level Vancouver Center
Sat 05:34:17 PM 51.2167 -126.3000 328° Northwest 450 518 36,000  Level Vancouver Center
Sat 05:35:17 PM 51.3333 -126.4167 328° Northwest 450 518 36,000  Level Vancouver Center
Sat 05:36:17 PM 51.4333 -126.5333 324° Northwest 460 529 36,000  Level Vancouver Center
Sat 05:37:17 PM 51.5500 -126.6500 328° Northwest 460 529 36,000  Level Vancouver Center
Sat 05:38:17 PM 51.6333 -126.7500 323° Northwest 460 529 36,000  Level Vancouver Center
Sat 05:39:17 PM 51.7500 -126.8667 328° Northwest 460 529 36,000  Level Vancouver Center
Sat 05:40:17 PM 51.8500 -126.9833 324° Northwest 460 529 36,000  Level Vancouver Center
Sat 05:41:17 PM 51.9667 -127.1000 328° Northwest 460 529 36,000  Level Vancouver Center
Sat 05:42:17 PM 52.0833 -127.2167 328° Northwest 460 529 36,000  Level Vancouver Center
Sat 05:43:17 PM 52.1667 -127.3333 319° Northwest 460 529 36,000  Level Vancouver Center
Sat 05:44:17 PM 52.2833 -127.4500 329° Northwest 460 529 36,000  Level Vancouver Center
Sat 05:45:17 PM 52.3833 -127.5500 329° Northwest 460 529 36,000  Level Vancouver Center
Sat 05:46:17 PM 52.5000 -127.7000 322° Northwest 460 529 36,000  Level Vancouver Center
Sat 05:47:17 PM 52.6000 -127.8167 325° Northwest 470 541 36,000  Level Vancouver Center
Sat 05:48:17 PM 52.7000 -127.9333 325° Northwest 470 541 36,000  Level Vancouver Center
Sat 05:49:17 PM 52.8167 -128.0500 329° Northwest 470 541 36,000  Level Vancouver Center
Sat 05:50:17 PM 52.9333 -128.1667 329° Northwest 470 541 36,000  Level Vancouver Center
Sat 05:51:17 PM 53.0500 -128.3000 326° Northwest 490 564 36,000  Level Vancouver Center
Sat 05:52:17 PM 53.1333 -128.4167 320° Northwest 480 552 36,000  Level Vancouver Center
Sat 05:53:17 PM 53.2500 -128.5500 326° Northwest 480 552 36,000  Level Vancouver Center
Sat 05:54:17 PM 53.3667 -128.6667 329° Northwest 470 541 36,000  Level Vancouver Center
Sat 05:55:17 PM 53.4833 -128.8167 323° Northwest 480 552 36,000  Level Vancouver Center
Sat 05:56:17 PM 53.5667 -128.9500 316° Northwest 480 552 36,000  Level Vancouver Center
Sat 05:57:17 PM 53.7000 -129.0667 333° Northwest 480 552 36,000  Level Vancouver Center
Sat 05:58:17 PM 53.8000 -129.2000 322° Northwest 480 552 36,000  Level Vancouver Center
Sat 05:59:17 PM 53.9000 -129.3167 326° Northwest 480 552 36,000  Level Vancouver Center
Sat 06:00:17 PM 54.0167 -129.4500 326° Northwest 480 552 36,000  Level Vancouver Center
Sat 06:01:17 PM 54.1333 -129.6167 320° Northwest 490 564 36,000  Level Vancouver Center
Sat 06:02:17 PM 54.2333 -129.7333 326° Northwest 490 564 36,000  Level Vancouver Center
Sat 06:03:17 PM 54.3500 -129.8667 326° Northwest 490 564 36,000  Level Vancouver Center
Sat 06:04:17 PM 54.4500 -130.0333 316° Northwest 490 564 36,000  Level Vancouver Center
Sat 06:05:17 PM 54.5667 -130.1667 326° Northwest 500 575 36,000  Level Vancouver Center
Sat 06:06:17 PM 54.6833 -130.3000 327° Northwest 500 575 36,000  Level Vancouver Center
Sat 06:07:17 PM 54.7833 -130.4333 322° Northwest 500 575 36,000  Level Vancouver Center
Sat 06:08:17 PM 54.9000 -130.5833 324° Northwest 490 564 36,000  Level Vancouver Center
Sat 06:09:17 PM 55.0000 -130.7167 323° Northwest 490 564 36,000  Level Vancouver Center
Sat 06:10:17 PM 55.1167 -130.8667 324° Northwest 490 564 36,000  Level Vancouver Center
Sat 06:11:17 PM 55.2167 -131.0000 323° Northwest 490 564 36,000  Level Vancouver Center
Sat 06:12:17 PM 55.3333 -131.1667 321° Northwest 490 564 36,000  Level Vancouver Center
Sat 06:13:17 PM 55.4333 -131.3000 323° Northwest 480 552 36,000  Level Vancouver Center
Sat 06:14:17 PM 55.5500 -131.4333 327° Northwest 490 564 36,000  Level Vancouver Center
Sat 06:15:17 PM 55.6667 -131.5833 324° Northwest 490 564 36,000  Level Vancouver Center
Sat 06:16:17 PM 55.7667 -131.7167 323° Northwest 490 564 36,000  Level Vancouver Center
Sat 06:17:17 PM 55.8667 -131.8833 317° Northwest 490 564 36,000  Level Vancouver Center
Sat 06:18:17 PM 55.9833 -132.0333 324° Northwest 500 575 36,000  Level Vancouver Center
Sat 06:19:17 PM 56.0833 -132.1667 323° Northwest 490 564 36,000  Level Vancouver Center
Sat 06:20:17 PM 56.2000 -132.3500 319° Northwest 490 564 36,000  Level Vancouver Center
Sat 06:21:17 PM 56.3000 -132.4833 324° Northwest 490 564 36,000  Level Vancouver Center
Sat 06:22:17 PM 56.4167 -132.6333 325° Northwest 490 564 36,000  Level Vancouver Center
Sat 06:23:17 PM 56.5167 -132.7833 320° Northwest 490 564 36,000  Level Vancouver Center
Sat 06:24:17 PM 56.6167 -132.9333 320° Northwest 480 552 36,000  Level Vancouver Center
Sat 06:25:17 PM 56.7333 -133.0833 325° Northwest 490 564 36,000  Level Vancouver Center
Sat 06:26:17 PM 56.8333 -133.2167 324° Northwest 480 552 36,000  Level Vancouver Center
Sat 06:27:17 PM 56.9333 -133.4000 315° West 480 552 36,000  Level Vancouver Center
Sat 06:28:17 PM 57.0500 -133.5500 325° Northwest 480 552 36,000  Level Vancouver Center
Sat 06:29:17 PM 57.1333 -133.7000 316° Northwest 490 564 36,000  Level Vancouver Center
Sat 06:30:17 PM 57.2500 -133.8500 325° Northwest 490 564 36,000  Level Vancouver Center
Sat 06:31:17 PM 57.3500 -134.0333 315° West 490 564 36,000  Level Vancouver Center
Sat 06:32:17 PM 57.4500 -134.1833 321° Northwest 480 552 36,000  Level Vancouver Center
Sat 06:33:17 PM 57.5500 -134.3333 321° Northwest 480 552 36,000  Level Vancouver Center
Sat 06:34:17 PM 57.6667 -134.5000 323° Northwest 480 552 36,000  Level Vancouver Center
Sat 06:35:17 PM 57.7500 -134.6500 316° Northwest 480 552 36,000  Level Vancouver Center
Sat 06:36:17 PM 57.8500 -134.8000 321° Northwest 470 541 36,000  Level Vancouver Center
Sat 06:37:17 PM 57.9500 -134.9667 319° Northwest 470 541 36,000  Level Vancouver Center
Sat 06:38:17 PM 58.0500 -135.1167 322° Northwest 470 541 36,000  Level Vancouver Center
Sat 06:39:17 PM 58.1500 -135.2667 322° Northwest 470 541 36,000  Level Vancouver Center
Sat 06:40:31 PM 58.2667 -135.3667 336° Northwest 470 541 36,000  Level Anchorage Center
Sat 06:41:31 PM 58.3833 -135.4833 332° Northwest 470 541 36,000  Level Anchorage Center
Sat 06:42:32 PM 58.5000 -135.6000 332° Northwest 470 541 36,000  Level Anchorage Center
Sat 06:43:32 PM 58.6167 -135.7333 329° Northwest 470 541 36,000  Level Anchorage Center
Sat 06:44:32 PM 58.7333 -135.8500 333° Northwest 480 552 36,000  Level Anchorage Center
Sat 06:45:32 PM 58.8500 -135.9833 329° Northwest 470 541 36,000  Level Anchorage Center
Sat 06:46:32 PM 58.9500 -136.0833 333° Northwest 470 541 36,000  Level Anchorage Center
Sat 06:47:33 PM 59.0500 -136.2167 326° Northwest 470 541 36,000  Level Anchorage Center
Sat 06:48:33 PM 59.1667 -136.3333 333° Northwest 460 529 36,000  Level Anchorage Center
Sat 06:49:33 PM 59.2833 -136.4667 330° Northwest 460 529 36,000  Level Anchorage Center
Sat 06:50:34 PM 59.3833 -136.5833 329° Northwest 460 529 36,000  Level Anchorage Center
Sat 06:51:34 PM 59.5167 -136.7500 328° Northwest 460 529 36,000  Level Anchorage Center
Sat 06:52:35 PM 59.6333 -136.8667 333° Northwest 450 518 36,000  Level Anchorage Center
Sat 06:53:35 PM 59.7333 -137.0000 326° Northwest 450 518 36,000  Level Anchorage Center
Sat 06:54:35 PM 59.8500 -137.1333 330° Northwest 450 518 36,000  Level Anchorage Center
Sat 06:55:36 PM 59.9500 -137.2500 330° Northwest 450 518 36,000  Level Anchorage Center
Sat 06:56:36 PM 60.0667 -137.3833 330° Northwest 440 506 36,000  Level Anchorage Center
Sat 06:57:36 PM 60.1667 -137.5000 330° Northwest 450 518 36,000  Level Anchorage Center
Sat 06:58:37 PM 60.2667 -137.6333 327° Northwest 440 506 36,000  Level Anchorage Center
Sat 06:59:37 PM 60.3833 -137.7667 331° Northwest 450 518 36,000  Level Anchorage Center
Sat 07:00:37 PM 60.4833 -137.9000 327° Northwest 450 518 36,000  Level Anchorage Center
Sat 07:01:38 PM 60.6000 -138.0333 331° Northwest 450 518 36,000  Level Anchorage Center
Sat 07:02:38 PM 60.7000 -138.1500 330° Northwest 440 506 36,000  Level Anchorage Center
Sat 07:03:38 PM 60.8000 -138.2833 327° Northwest 440 506 36,000  Level Anchorage Center
Sat 07:04:39 PM 60.9000 -138.4167 327° Northwest 430 495 36,000  Level Anchorage Center
Sat 07:05:39 PM 61.0167 -138.5500 331° Northwest 440 506 36,000  Level Anchorage Center
Sat 07:06:39 PM 61.1167 -138.6833 327° Northwest 430 495 36,000  Level Anchorage Center
Sat 07:07:39 PM 61.2167 -138.8167 327° Northwest 420 483 36,000  Level Anchorage Center
Sat 07:08:40 PM 61.3000 -138.9333 326° Northwest 410 472 36,000  Level Anchorage Center
Sat 07:09:40 PM 61.4000 -139.0833 324° Northwest 410 472 36,000  Level Anchorage Center
Sat 07:10:40 PM 61.4833 -139.2333 319° Northwest 420 483 36,000  Level Anchorage Center
Sat 07:11:41 PM 61.5833 -139.4000 322° Northwest 420 483 36,000  Level Anchorage Center
Sat 07:14:32 PM 61.8500 -139.8667 321° Northwest 430 495 36,000  Level Anchorage Center
Sat 07:16:00 PM 61.9849 -140.1092 320° Northwest  Level FlightAware Approximate
Sat 07:22:05 PM 62.5333 -141.0500 308° West 410 472 36,000  Level Anchorage Center
Sat 07:23:00 PM 62.6227 -141.2965 319° Northwest  Level FlightAware Approximate
Sat 07:23:05 PM 62.5833 -141.2333 301° West 420 483 36,000  Level Anchorage Center
Sat 07:24:00 PM 62.7130 -141.4701 319° Northwest  Level FlightAware Approximate
Sat 07:24:05 PM 62.6833 -141.4167 320° Northwest 420 483 36,000  Level Anchorage Center
Sat 07:25:00 PM 62.8031 -141.6449 318° Northwest  Level FlightAware Approximate
Sat 07:25:06 PM 62.7667 -141.6000 315° West 410 472 36,000  Level Anchorage Center
Sat 07:26:00 PM 62.8930 -141.8206 318° Northwest  Level FlightAware Approximate
Sat 07:27:00 PM 62.9740 -142.0152 308° West  Level FlightAware Approximate
Sat 07:28:06 PM 63.0167 -142.1167 317° Northwest 410 472 36,000  Level Anchorage Center
Sat 07:29:07 PM 63.0833 -142.3167 306° West 410 472 36,000  Level Anchorage Center
Sat 07:30:07 PM 63.1500 -142.5167 306° West 410 472 36,000  Level Anchorage Center
Sat 07:31:07 PM 63.2167 -142.7333 304° West 420 483 36,000  Level Anchorage Center
Sat 07:32:08 PM 63.2833 -142.9333 307° West 420 483 36,000  Level Anchorage Center
Sat 07:33:08 PM 63.3667 -143.1333 313° West 410 472 36,000  Level Anchorage Center
Sat 07:34:08 PM 63.4333 -143.3500 305° West 410 472 36,000  Level Anchorage Center
Sat 07:35:09 PM 63.5000 -143.5667 305° West 410 472 36,000  Level Anchorage Center
Sat 07:36:09 PM 63.5667 -143.7667 307° West 420 483 36,000  Level Anchorage Center
Sat 07:37:09 PM 63.6333 -143.9833 305° West 420 483 36,000 -99 Level Anchorage Center
Sat 07:38:10 PM 63.7000 -144.2000 305° West 420 483 35,800 -496 Descending Anchorage Center
Sat 07:39:10 PM 63.7667 -144.4167 305° West 420 483 35,000 -900 Descending Anchorage Center
Sat 07:40:10 PM 63.8333 -144.6167 307° West 410 472 34,000 -1,524 Descending Anchorage Center
Sat 07:41:16 PM 63.9000 -144.8833 300° West 420 483 31,800 -2,048 Descending Anchorage Center
Sat 07:42:16 PM 63.9667 -145.0833 307° West 410 472 29,700 -2,150 Descending Anchorage Center
Sat 07:43:16 PM 64.0333 -145.3000 305° West 400 460 27,500 -2,132 Descending Anchorage Center
Sat 07:44:17 PM 64.1000 -145.5000 307° West 390 449 25,400 -2,083 Descending Anchorage Center
Sat 07:45:17 PM 64.1500 -145.7167 298° West 380 437 23,300 -2,000 Descending Anchorage Center
Sat 07:46:17 PM 64.2167 -145.9167 308° West 380 437 21,400 -1,983 Descending Anchorage Center
Sat 07:47:18 PM 64.2667 -146.1167 300° West 370 426 19,300 -2,066 Descending Anchorage Center
Sat 07:49:00 PM 64.3847 -146.5029 303° West  Level FlightAware Approximate
Sat 07:56:00 PM 64.7004 -147.9032 10° North  Level FlightAware Approximate
Sat 07:57:00 PM 64.8000 -147.8500 16° North  Level FlightAware Approximate
Sat 07:58:00 PM 64.8151 -147.8564 16° North  Level Estimated
Sat 07:59:00 PM 64.8151 -147.8564 16° North  Level Estimated
Sat 08:00:00 PM 64.8151 -147.8564 16° North  Level Estimated
Sat 08:01:00 PM 64.8151 -147.8564 16° North  Level Estimated
Sat 08:02:00 PM 64.8151 -147.8564 16° North  Level Estimated
Sat 08:03:00 PM 64.8151 -147.8564 16° North  Level Estimated
Sat 08:04:00 PM 64.8151 -147.8564 16° North  Level Estimated
Sat 08:05:00 PM 64.8151 -147.8564 16° North  Level Estimated
Sat 08:06:00 PM 64.8151 -147.8564 16° North  Level Estimated
Sat 08:07:00 PM 64.8151 -147.8564 16° North  Level Estimated
Sat 08:08:00 PM 64.8151 -147.8564 16° North  Level Estimated
Sat 08:09:00 PM 64.8151 -147.8564 16° North  Level Estimated
Sat 08:10:00 PM 64.8151 -147.8564 16° North  Level Estimated
Sat 08:11:00 PM 64.8151 -147.8564 16° North  Level Estimated

Login

Don't have an account? Register now (free) for customized features, flight alerts, and more!